sensor_id;sensor_type;location;lat;lon;timestamp;P1;durP1;ratioP1;P2;durP2;ratioP2
13291;SDS011;6714;53.056;8.690;2024-03-02T00:02:06;18.17;;;13.97;;
13291;SDS011;6714;53.056;8.690;2024-03-02T00:04:48;18.40;;;14.57;;
13291;SDS011;6714;53.056;8.690;2024-03-02T00:07:30;18.77;;;13.63;;
13291;SDS011;6714;53.056;8.690;2024-03-02T00:10:16;17.73;;;13.27;;
13291;SDS011;6714;53.056;8.690;2024-03-02T00:12:58;16.73;;;13.00;;
13291;SDS011;6714;53.056;8.690;2024-03-02T00:15:41;18.57;;;13.43;;
13291;SDS011;6714;53.056;8.690;2024-03-02T00:18:25;16.90;;;13.43;;
13291;SDS011;6714;53.056;8.690;2024-03-02T00:21:07;18.20;;;13.60;;
13291;SDS011;6714;53.056;8.690;2024-03-02T00:23:50;19.30;;;14.27;;
13291;SDS011;6714;53.056;8.690;2024-03-02T00:26:34;18.40;;;14.20;;
13291;SDS011;6714;53.056;8.690;2024-03-02T00:29:16;19.03;;;14.00;;
13291;SDS011;6714;53.056;8.690;2024-03-02T00:32:01;17.23;;;12.87;;
13291;SDS011;6714;53.056;8.690;2024-03-02T00:34:43;15.30;;;11.27;;
13291;SDS011;6714;53.056;8.690;2024-03-02T00:37:26;18.93;;;13.87;;
13291;SDS011;6714;53.056;8.690;2024-03-02T00:40:09;20.60;;;14.63;;
13291;SDS011;6714;53.056;8.690;2024-03-02T00:42:56;20.47;;;14.63;;
13291;SDS011;6714;53.056;8.690;2024-03-02T00:45:39;19.57;;;14.40;;
13291;SDS011;6714;53.056;8.690;2024-03-02T00:48:22;19.90;;;15.07;;
13291;SDS011;6714;53.056;8.690;2024-03-02T00:51:04;18.27;;;13.97;;
13291;SDS011;6714;53.056;8.690;2024-03-02T00:53:46;20.37;;;15.07;;
13291;SDS011;6714;53.056;8.690;2024-03-02T00:56:28;18.73;;;13.50;;
13291;SDS011;6714;53.056;8.690;2024-03-02T00:59:12;20.43;;;15.47;;
13291;SDS011;6714;53.056;8.690;2024-03-02T01:01:55;20.80;;;15.27;;
13291;SDS011;6714;53.056;8.690;2024-03-02T01:04:37;20.03;;;14.57;;
13291;SDS011;6714;53.056;8.690;2024-03-02T01:07:19;18.43;;;13.93;;
13291;SDS011;6714;53.056;8.690;2024-03-02T01:10:01;18.67;;;13.73;;
13291;SDS011;6714;53.056;8.690;2024-03-02T01:12:44;17.93;;;13.23;;
13291;SDS011;6714;53.056;8.690;2024-03-02T01:15:27;19.83;;;14.93;;
13291;SDS011;6714;53.056;8.690;2024-03-02T01:18:10;19.87;;;14.97;;
13291;SDS011;6714;53.056;8.690;2024-03-02T01:20:52;19.17;;;14.33;;
13291;SDS011;6714;53.056;8.690;2024-03-02T01:23:35;19.57;;;13.60;;
13291;SDS011;6714;53.056;8.690;2024-03-02T01:26:18;19.77;;;14.40;;
13291;SDS011;6714;53.056;8.690;2024-03-02T01:29:00;20.17;;;13.93;;
13291;SDS011;6714;53.056;8.690;2024-03-02T01:31:44;18.33;;;13.00;;
13291;SDS011;6714;53.056;8.690;2024-03-02T01:34:26;18.20;;;13.43;;
13291;SDS011;6714;53.056;8.690;2024-03-02T01:37:08;17.47;;;13.60;;
13291;SDS011;6714;53.056;8.690;2024-03-02T01:39:51;17.87;;;13.00;;
13291;SDS011;6714;53.056;8.690;2024-03-02T01:42:33;17.00;;;12.53;;
13291;SDS011;6714;53.056;8.690;2024-03-02T01:45:15;17.13;;;12.77;;
13291;SDS011;6714;53.056;8.690;2024-03-02T01:47:59;16.27;;;13.20;;
13291;SDS011;6714;53.056;8.690;2024-03-02T01:50:41;17.93;;;13.30;;
13291;SDS011;6714;53.056;8.690;2024-03-02T01:53:24;17.30;;;12.87;;
13291;SDS011;6714;53.056;8.690;2024-03-02T01:56:06;16.73;;;12.40;;
13291;SDS011;6714;53.056;8.690;2024-03-02T01:58:49;17.00;;;12.70;;
13291;SDS011;6714;53.056;8.690;2024-03-02T02:01:31;17.17;;;13.10;;
13291;SDS011;6714;53.056;8.690;2024-03-02T02:04:15;16.80;;;12.23;;
13291;SDS011;6714;53.056;8.690;2024-03-02T02:06:57;17.33;;;12.53;;
13291;SDS011;6714;53.056;8.690;2024-03-02T02:09:39;17.53;;;13.30;;
13291;SDS011;6714;53.056;8.690;2024-03-02T02:12:22;14.73;;;11.37;;
13291;SDS011;6714;53.056;8.690;2024-03-02T02:15:04;16.90;;;12.57;;
13291;SDS011;6714;53.056;8.690;2024-03-02T02:18:03;16.63;;;12.87;;
13291;SDS011;6714;53.056;8.690;2024-03-02T02:20:47;16.73;;;12.67;;
13291;SDS011;6714;53.056;8.690;2024-03-02T02:23:31;15.93;;;12.37;;
13291;SDS011;6714;53.056;8.690;2024-03-02T02:26:13;16.13;;;12.50;;
13291;SDS011;6714;53.056;8.690;2024-03-02T02:28:55;16.23;;;12.23;;
13291;SDS011;6714;53.056;8.690;2024-03-02T02:31:37;16.93;;;11.87;;
13291;SDS011;6714;53.056;8.690;2024-03-02T02:34:20;17.17;;;12.93;;
13291;SDS011;6714;53.056;8.690;2024-03-02T02:37:02;16.80;;;12.43;;
13291;SDS011;6714;53.056;8.690;2024-03-02T02:39:45;16.13;;;12.17;;
13291;SDS011;6714;53.056;8.690;2024-03-02T02:42:28;16.83;;;12.33;;
13291;SDS011;6714;53.056;8.690;2024-03-02T02:45:10;15.93;;;12.33;;
13291;SDS011;6714;53.056;8.690;2024-03-02T02:47:54;15.73;;;12.23;;
13291;SDS011;6714;53.056;8.690;2024-03-02T02:50:36;14.70;;;10.37;;
13291;SDS011;6714;53.056;8.690;2024-03-02T02:53:18;17.30;;;12.37;;
13291;SDS011;6714;53.056;8.690;2024-03-02T02:56:02;16.57;;;11.90;;
13291;SDS011;6714;53.056;8.690;2024-03-02T02:58:44;14.13;;;11.37;;
13291;SDS011;6714;53.056;8.690;2024-03-02T03:01:28;13.23;;;10.03;;
13291;SDS011;6714;53.056;8.690;2024-03-02T03:04:10;14.63;;;10.57;;
13291;SDS011;6714;53.056;8.690;2024-03-02T03:06:53;17.77;;;12.80;;
13291;SDS011;6714;53.056;8.690;2024-03-02T03:09:37;17.00;;;12.77;;
13291;SDS011;6714;53.056;8.690;2024-03-02T03:12:21;15.97;;;12.23;;
13291;SDS011;6714;53.056;8.690;2024-03-02T03:15:03;15.80;;;12.17;;
13291;SDS011;6714;53.056;8.690;2024-03-02T03:17:47;18.33;;;14.13;;
13291;SDS011;6714;53.056;8.690;2024-03-02T03:20:29;17.60;;;13.03;;
13291;SDS011;6714;53.056;8.690;2024-03-02T03:23:11;18.10;;;13.67;;
13291;SDS011;6714;53.056;8.690;2024-03-02T03:25:55;21.53;;;15.00;;
13291;SDS011;6714;53.056;8.690;2024-03-02T03:28:39;17.60;;;12.67;;
13291;SDS011;6714;53.056;8.690;2024-03-02T03:31:21;20.07;;;14.13;;
13291;SDS011;6714;53.056;8.690;2024-03-02T03:34:03;19.23;;;13.93;;
13291;SDS011;6714;53.056;8.690;2024-03-02T03:36:45;22.77;;;14.23;;
13291;SDS011;6714;53.056;8.690;2024-03-02T03:39:29;20.43;;;14.23;;
13291;SDS011;6714;53.056;8.690;2024-03-02T03:42:11;23.10;;;15.73;;
13291;SDS011;6714;53.056;8.690;2024-03-02T03:44:55;19.53;;;14.10;;
13291;SDS011;6714;53.056;8.690;2024-03-02T03:47:37;20.97;;;15.50;;
13291;SDS011;6714;53.056;8.690;2024-03-02T03:50:20;21.20;;;14.47;;
13291;SDS011;6714;53.056;8.690;2024-03-02T03:53:03;19.90;;;15.10;;
13291;SDS011;6714;53.056;8.690;2024-03-02T03:55:45;22.50;;;15.47;;
13291;SDS011;6714;53.056;8.690;2024-03-02T03:58:29;18.63;;;12.97;;
13291;SDS011;6714;53.056;8.690;2024-03-02T04:01:13;24.00;;;17.60;;
13291;SDS011;6714;53.056;8.690;2024-03-02T04:03:55;24.27;;;16.73;;
13291;SDS011;6714;53.056;8.690;2024-03-02T04:06:38;28.60;;;18.40;;
13291;SDS011;6714;53.056;8.690;2024-03-02T04:09:20;20.50;;;15.30;;
13291;SDS011;6714;53.056;8.690;2024-03-02T04:12:02;25.40;;;18.00;;
13291;SDS011;6714;53.056;8.690;2024-03-02T04:14:44;26.00;;;17.47;;
13291;SDS011;6714;53.056;8.690;2024-03-02T04:17:28;21.03;;;16.00;;
13291;SDS011;6714;53.056;8.690;2024-03-02T04:20:10;12.13;;;9.57;;
13291;SDS011;6714;53.056;8.690;2024-03-02T04:22:53;21.20;;;15.43;;
13291;SDS011;6714;53.056;8.690;2024-03-02T04:25:35;21.67;;;16.20;;
13291;SDS011;6714;53.056;8.690;2024-03-02T04:28:18;21.27;;;14.63;;
13291;SDS011;6714;53.056;8.690;2024-03-02T04:31:00;22.77;;;16.10;;
13291;SDS011;6714;53.056;8.690;2024-03-02T04:33:43;20.03;;;14.33;;
13291;SDS011;6714;53.056;8.690;2024-03-02T04:36:26;20.03;;;15.33;;
13291;SDS011;6714;53.056;8.690;2024-03-02T04:39:09;19.17;;;14.40;;
13291;SDS011;6714;53.056;8.690;2024-03-02T04:41:51;20.07;;;15.33;;
13291;SDS011;6714;53.056;8.690;2024-03-02T04:44:33;20.60;;;14.63;;
13291;SDS011;6714;53.056;8.690;2024-03-02T04:47:17;20.10;;;15.07;;
13291;SDS011;6714;53.056;8.690;2024-03-02T04:50:00;18.73;;;13.67;;
13291;SDS011;6714;53.056;8.690;2024-03-02T04:52:42;19.87;;;14.90;;
13291;SDS011;6714;53.056;8.690;2024-03-02T04:55:25;21.37;;;15.17;;
13291;SDS011;6714;53.056;8.690;2024-03-02T04:58:30;20.53;;;15.37;;
13291;SDS011;6714;53.056;8.690;2024-03-02T05:01:13;21.07;;;15.97;;
13291;SDS011;6714;53.056;8.690;2024-03-02T05:03:58;19.33;;;13.67;;
13291;SDS011;6714;53.056;8.690;2024-03-02T05:06:41;20.40;;;14.43;;
13291;SDS011;6714;53.056;8.690;2024-03-02T05:09:24;21.60;;;15.00;;
13291;SDS011;6714;53.056;8.690;2024-03-02T05:12:06;24.00;;;16.83;;
13291;SDS011;6714;53.056;8.690;2024-03-02T05:15:09;22.20;;;14.80;;
13291;SDS011;6714;53.056;8.690;2024-03-02T05:17:50;19.63;;;14.53;;
13291;SDS011;6714;53.056;8.690;2024-03-02T05:20:33;21.33;;;14.77;;
13291;SDS011;6714;53.056;8.690;2024-03-02T05:23:16;20.37;;;14.90;;
13291;SDS011;6714;53.056;8.690;2024-03-02T05:25:59;21.07;;;15.30;;
13291;SDS011;6714;53.056;8.690;2024-03-02T05:28:41;23.60;;;16.83;;
13291;SDS011;6714;53.056;8.690;2024-03-02T05:31:23;22.33;;;15.30;;
13291;SDS011;6714;53.056;8.690;2024-03-02T05:34:05;19.97;;;14.60;;
13291;SDS011;6714;53.056;8.690;2024-03-02T05:36:48;20.63;;;15.07;;
13291;SDS011;6714;53.056;8.690;2024-03-02T05:39:31;18.00;;;13.60;;
13291;SDS011;6714;53.056;8.690;2024-03-02T05:42:14;18.13;;;14.43;;
13291;SDS011;6714;53.056;8.690;2024-03-02T05:44:56;18.80;;;14.07;;
13291;SDS011;6714;53.056;8.690;2024-03-02T05:47:39;18.67;;;13.43;;
13291;SDS011;6714;53.056;8.690;2024-03-02T05:50:21;20.97;;;14.23;;
13291;SDS011;6714;53.056;8.690;2024-03-02T05:53:03;20.30;;;13.77;;
13291;SDS011;6714;53.056;8.690;2024-03-02T05:55:47;17.23;;;13.23;;
13291;SDS011;6714;53.056;8.690;2024-03-02T05:58:33;18.57;;;13.60;;
13291;SDS011;6714;53.056;8.690;2024-03-02T06:01:29;17.37;;;13.17;;
13291;SDS011;6714;53.056;8.690;2024-03-02T06:04:12;18.50;;;12.93;;
13291;SDS011;6714;53.056;8.690;2024-03-02T06:06:54;14.87;;;11.50;;
13291;SDS011;6714;53.056;8.690;2024-03-02T06:09:36;17.83;;;13.60;;
13291;SDS011;6714;53.056;8.690;2024-03-02T06:12:20;17.17;;;12.70;;
13291;SDS011;6714;53.056;8.690;2024-03-02T06:15:02;16.40;;;12.40;;
13291;SDS011;6714;53.056;8.690;2024-03-02T06:17:45;15.47;;;12.07;;
13291;SDS011;6714;53.056;8.690;2024-03-02T06:20:27;16.67;;;12.33;;
13291;SDS011;6714;53.056;8.690;2024-03-02T06:23:11;18.63;;;12.93;;
13291;SDS011;6714;53.056;8.690;2024-03-02T06:25:53;16.37;;;12.60;;
13291;SDS011;6714;53.056;8.690;2024-03-02T06:28:37;15.87;;;12.23;;
13291;SDS011;6714;53.056;8.690;2024-03-02T06:31:19;17.30;;;13.10;;
13291;SDS011;6714;53.056;8.690;2024-03-02T06:34:01;19.50;;;13.77;;
13291;SDS011;6714;53.056;8.690;2024-03-02T06:36:44;17.53;;;13.17;;
13291;SDS011;6714;53.056;8.690;2024-03-02T06:39:27;20.47;;;13.10;;
13291;SDS011;6714;53.056;8.690;2024-03-02T06:42:11;16.80;;;12.57;;
13291;SDS011;6714;53.056;8.690;2024-03-02T06:44:55;18.93;;;13.53;;
13291;SDS011;6714;53.056;8.690;2024-03-02T06:47:37;19.03;;;13.53;;
13291;SDS011;6714;53.056;8.690;2024-03-02T06:50:19;14.13;;;11.00;;
13291;SDS011;6714;53.056;8.690;2024-03-02T06:53:01;17.97;;;13.43;;
13291;SDS011;6714;53.056;8.690;2024-03-02T06:55:44;16.77;;;12.17;;
13291;SDS011;6714;53.056;8.690;2024-03-02T06:58:26;18.73;;;13.67;;
13291;SDS011;6714;53.056;8.690;2024-03-02T07:01:10;17.00;;;12.93;;
13291;SDS011;6714;53.056;8.690;2024-03-02T07:03:52;17.80;;;13.30;;
13291;SDS011;6714;53.056;8.690;2024-03-02T07:06:34;19.27;;;13.87;;
13291;SDS011;6714;53.056;8.690;2024-03-02T07:09:17;21.90;;;14.90;;
13291;SDS011;6714;53.056;8.690;2024-03-02T07:12:02;18.77;;;14.13;;
13291;SDS011;6714;53.056;8.690;2024-03-02T07:14:45;20.73;;;15.03;;
13291;SDS011;6714;53.056;8.690;2024-03-02T07:18:06;19.20;;;13.90;;
13291;SDS011;6714;53.056;8.690;2024-03-02T07:20:48;20.43;;;14.43;;
13291;SDS011;6714;53.056;8.690;2024-03-02T07:23:30;20.83;;;14.17;;
13291;SDS011;6714;53.056;8.690;2024-03-02T07:26:13;18.40;;;14.47;;
13291;SDS011;6714;53.056;8.690;2024-03-02T07:28:56;21.40;;;15.43;;
13291;SDS011;6714;53.056;8.690;2024-03-02T07:31:38;20.13;;;14.27;;
13291;SDS011;6714;53.056;8.690;2024-03-02T07:34:22;21.40;;;14.67;;
13291;SDS011;6714;53.056;8.690;2024-03-02T07:37:04;19.60;;;14.70;;
13291;SDS011;6714;53.056;8.690;2024-03-02T07:39:47;23.30;;;15.77;;
13291;SDS011;6714;53.056;8.690;2024-03-02T07:42:29;22.00;;;16.10;;
13291;SDS011;6714;53.056;8.690;2024-03-02T07:45:12;20.97;;;15.00;;
13291;SDS011;6714;53.056;8.690;2024-03-02T07:47:54;21.20;;;15.93;;
13291;SDS011;6714;53.056;8.690;2024-03-02T07:50:38;23.07;;;16.50;;
13291;SDS011;6714;53.056;8.690;2024-03-02T07:53:21;24.57;;;16.67;;
13291;SDS011;6714;53.056;8.690;2024-03-02T07:56:03;24.57;;;16.60;;
13291;SDS011;6714;53.056;8.690;2024-03-02T07:58:46;30.23;;;18.27;;
13291;SDS011;6714;53.056;8.690;2024-03-02T08:01:29;26.07;;;18.43;;
13291;SDS011;6714;53.056;8.690;2024-03-02T08:04:11;26.03;;;17.47;;
13291;SDS011;6714;53.056;8.690;2024-03-02T08:06:55;24.63;;;17.43;;
13291;SDS011;6714;53.056;8.690;2024-03-02T08:09:38;28.83;;;18.33;;
13291;SDS011;6714;53.056;8.690;2024-03-02T08:12:20;28.77;;;18.40;;
13291;SDS011;6714;53.056;8.690;2024-03-02T08:15:04;29.93;;;19.33;;
13291;SDS011;6714;53.056;8.690;2024-03-02T08:17:46;28.87;;;19.40;;
13291;SDS011;6714;53.056;8.690;2024-03-02T08:20:29;29.97;;;18.70;;
13291;SDS011;6714;53.056;8.690;2024-03-02T08:23:13;29.07;;;20.00;;
13291;SDS011;6714;53.056;8.690;2024-03-02T08:25:55;27.87;;;19.23;;
13291;SDS011;6714;53.056;8.690;2024-03-02T08:28:38;30.23;;;20.70;;
13291;SDS011;6714;53.056;8.690;2024-03-02T08:31:21;27.83;;;18.77;;
13291;SDS011;6714;53.056;8.690;2024-03-02T08:34:03;26.67;;;18.53;;
13291;SDS011;6714;53.056;8.690;2024-03-02T08:36:46;32.63;;;21.00;;
13291;SDS011;6714;53.056;8.690;2024-03-02T08:39:29;37.13;;;24.07;;
13291;SDS011;6714;53.056;8.690;2024-03-02T08:42:12;32.03;;;21.23;;
13291;SDS011;6714;53.056;8.690;2024-03-02T08:44:54;38.40;;;23.97;;
13291;SDS011;6714;53.056;8.690;2024-03-02T08:47:36;37.40;;;23.23;;
13291;SDS011;6714;53.056;8.690;2024-03-02T08:50:19;37.63;;;23.83;;
13291;SDS011;6714;53.056;8.690;2024-03-02T08:53:01;38.23;;;23.97;;
13291;SDS011;6714;53.056;8.690;2024-03-02T08:55:45;40.70;;;24.70;;
13291;SDS011;6714;53.056;8.690;2024-03-02T08:58:28;36.67;;;23.60;;
13291;SDS011;6714;53.056;8.690;2024-03-02T09:01:10;37.07;;;23.53;;
13291;SDS011;6714;53.056;8.690;2024-03-02T09:03:53;39.33;;;23.50;;
13291;SDS011;6714;53.056;8.690;2024-03-02T09:06:35;34.77;;;22.13;;
13291;SDS011;6714;53.056;8.690;2024-03-02T09:09:19;31.70;;;19.53;;
13291;SDS011;6714;53.056;8.690;2024-03-02T09:12:02;43.17;;;25.13;;
13291;SDS011;6714;53.056;8.690;2024-03-02T09:14:45;40.60;;;26.00;;
13291;SDS011;6714;53.056;8.690;2024-03-02T09:17:28;30.47;;;19.80;;
13291;SDS011;6714;53.056;8.690;2024-03-02T09:20:10;32.93;;;21.87;;
13291;SDS011;6714;53.056;8.690;2024-03-02T09:22:54;41.37;;;25.10;;
13291;SDS011;6714;53.056;8.690;2024-03-02T09:25:36;37.00;;;24.20;;
13291;SDS011;6714;53.056;8.690;2024-03-02T09:28:20;25.50;;;17.17;;
13291;SDS011;6714;53.056;8.690;2024-03-02T09:31:02;31.27;;;21.10;;
13291;SDS011;6714;53.056;8.690;2024-03-02T09:33:45;28.30;;;18.67;;
13291;SDS011;6714;53.056;8.690;2024-03-02T09:36:27;27.37;;;19.37;;
13291;SDS011;6714;53.056;8.690;2024-03-02T09:39:09;28.80;;;18.40;;
13291;SDS011;6714;53.056;8.690;2024-03-02T09:41:51;25.73;;;17.13;;
13291;SDS011;6714;53.056;8.690;2024-03-02T09:44:35;22.73;;;16.13;;
13291;SDS011;6714;53.056;8.690;2024-03-02T09:47:18;24.37;;;18.20;;
13291;SDS011;6714;53.056;8.690;2024-03-02T09:50:01;26.13;;;17.70;;
13291;SDS011;6714;53.056;8.690;2024-03-02T09:52:44;26.27;;;17.53;;
13291;SDS011;6714;53.056;8.690;2024-03-02T09:55:26;19.80;;;14.57;;
13291;SDS011;6714;53.056;8.690;2024-03-02T09:58:09;21.03;;;15.43;;
13291;SDS011;6714;53.056;8.690;2024-03-02T10:00:53;22.27;;;15.53;;
13291;SDS011;6714;53.056;8.690;2024-03-02T10:03:36;20.50;;;15.13;;
13291;SDS011;6714;53.056;8.690;2024-03-02T10:06:19;21.03;;;13.90;;
13291;SDS011;6714;53.056;8.690;2024-03-02T10:09:01;19.53;;;14.13;;
13291;SDS011;6714;53.056;8.690;2024-03-02T10:11:44;15.30;;;11.53;;
13291;SDS011;6714;53.056;8.690;2024-03-02T10:14:26;19.00;;;14.37;;
13291;SDS011;6714;53.056;8.690;2024-03-02T10:17:10;15.50;;;11.43;;
13291;SDS011;6714;53.056;8.690;2024-03-02T10:19:52;13.67;;;11.27;;
13291;SDS011;6714;53.056;8.690;2024-03-02T10:22:35;15.03;;;11.10;;
13291;SDS011;6714;53.056;8.690;2024-03-02T10:25:28;15.43;;;11.90;;
13291;SDS011;6714;53.056;8.690;2024-03-02T10:28:11;16.43;;;11.70;;
13291;SDS011;6714;53.056;8.690;2024-03-02T10:30:53;11.50;;;8.83;;
13291;SDS011;6714;53.056;8.690;2024-03-02T10:33:37;12.33;;;9.93;;
13291;SDS011;6714;53.056;8.690;2024-03-02T10:36:20;14.70;;;10.57;;
13291;SDS011;6714;53.056;8.690;2024-03-02T10:39:02;13.07;;;10.00;;
13291;SDS011;6714;53.056;8.690;2024-03-02T10:41:45;13.07;;;9.20;;
13291;SDS011;6714;53.056;8.690;2024-03-02T10:44:28;13.13;;;9.70;;
13291;SDS011;6714;53.056;8.690;2024-03-02T10:47:10;10.30;;;8.80;;
13291;SDS011;6714;53.056;8.690;2024-03-02T10:49:55;9.07;;;8.07;;
13291;SDS011;6714;53.056;8.690;2024-03-02T10:52:41;11.67;;;9.10;;
13291;SDS011;6714;53.056;8.690;2024-03-02T10:55:23;10.90;;;8.10;;
13291;SDS011;6714;53.056;8.690;2024-03-02T10:58:06;11.47;;;8.77;;
13291;SDS011;6714;53.056;8.690;2024-03-02T11:00:48;11.63;;;8.73;;
13291;SDS011;6714;53.056;8.690;2024-03-02T11:03:31;9.87;;;7.63;;
13291;SDS011;6714;53.056;8.690;2024-03-02T11:06:16;9.57;;;7.57;;
13291;SDS011;6714;53.056;8.690;2024-03-02T11:09:00;9.80;;;7.87;;
13291;SDS011;6714;53.056;8.690;2024-03-02T11:11:43;7.47;;;6.20;;
13291;SDS011;6714;53.056;8.690;2024-03-02T11:14:25;9.50;;;7.77;;
13291;SDS011;6714;53.056;8.690;2024-03-02T11:17:08;9.00;;;7.80;;
13291;SDS011;6714;53.056;8.690;2024-03-02T11:19:51;9.60;;;7.80;;
13291;SDS011;6714;53.056;8.690;2024-03-02T11:22:35;9.40;;;7.50;;
13291;SDS011;6714;53.056;8.690;2024-03-02T11:25:24;9.20;;;7.63;;
13291;SDS011;6714;53.056;8.690;2024-03-02T11:28:07;7.33;;;6.63;;
13291;SDS011;6714;53.056;8.690;2024-03-02T11:30:50;8.67;;;7.10;;
13291;SDS011;6714;53.056;8.690;2024-03-02T11:33:36;7.10;;;6.40;;
13291;SDS011;6714;53.056;8.690;2024-03-02T11:36:18;8.33;;;7.43;;
13291;SDS011;6714;53.056;8.690;2024-03-02T11:39:02;7.93;;;6.77;;
13291;SDS011;6714;53.056;8.690;2024-03-02T11:41:45;8.53;;;7.07;;
13291;SDS011;6714;53.056;8.690;2024-03-02T11:44:27;7.80;;;6.40;;
13291;SDS011;6714;53.056;8.690;2024-03-02T11:47:10;6.87;;;6.17;;
13291;SDS011;6714;53.056;8.690;2024-03-02T11:49:54;6.73;;;6.03;;
13291;SDS011;6714;53.056;8.690;2024-03-02T11:52:36;8.57;;;7.53;;
13291;SDS011;6714;53.056;8.690;2024-03-02T11:55:21;10.47;;;8.47;;
13291;SDS011;6714;53.056;8.690;2024-03-02T11:58:04;10.33;;;8.37;;
13291;SDS011;6714;53.056;8.690;2024-03-02T12:00:47;7.23;;;6.53;;
13291;SDS011;6714;53.056;8.690;2024-03-02T12:03:29;8.43;;;7.53;;
13291;SDS011;6714;53.056;8.690;2024-03-02T12:06:11;6.67;;;6.00;;
13291;SDS011;6714;53.056;8.690;2024-03-02T12:08:54;8.03;;;6.93;;
13291;SDS011;6714;53.056;8.690;2024-03-02T12:11:38;8.13;;;6.90;;
13291;SDS011;6714;53.056;8.690;2024-03-02T12:14:20;7.23;;;6.47;;
13291;SDS011;6714;53.056;8.690;2024-03-02T12:17:06;7.13;;;6.17;;
13291;SDS011;6714;53.056;8.690;2024-03-02T12:19:48;8.27;;;6.87;;
13291;SDS011;6714;53.056;8.690;2024-03-02T12:22:30;6.83;;;6.07;;
13291;SDS011;6714;53.056;8.690;2024-03-02T12:25:12;6.67;;;5.97;;
13291;SDS011;6714;53.056;8.690;2024-03-02T12:27:58;5.70;;;5.20;;
13291;SDS011;6714;53.056;8.690;2024-03-02T12:30:41;6.00;;;5.40;;
13291;SDS011;6714;53.056;8.690;2024-03-02T12:33:23;7.70;;;6.97;;
13291;SDS011;6714;53.056;8.690;2024-03-02T12:36:09;7.03;;;6.17;;
13291;SDS011;6714;53.056;8.690;2024-03-02T12:38:52;7.20;;;6.50;;
13291;SDS011;6714;53.056;8.690;2024-03-02T12:41:35;8.43;;;6.43;;
13291;SDS011;6714;53.056;8.690;2024-03-02T12:44:19;7.77;;;6.27;;
13291;SDS011;6714;53.056;8.690;2024-03-02T12:47:01;7.50;;;6.53;;
13291;SDS011;6714;53.056;8.690;2024-03-02T12:49:44;7.97;;;6.90;;
13291;SDS011;6714;53.056;8.690;2024-03-02T12:52:26;7.67;;;6.00;;
13291;SDS011;6714;53.056;8.690;2024-03-02T12:55:09;6.77;;;6.17;;
13291;SDS011;6714;53.056;8.690;2024-03-02T12:57:51;7.17;;;6.47;;
13291;SDS011;6714;53.056;8.690;2024-03-02T13:00:35;7.03;;;5.70;;
13291;SDS011;6714;53.056;8.690;2024-03-02T13:03:17;7.13;;;6.43;;
13291;SDS011;6714;53.056;8.690;2024-03-02T13:06:03;7.73;;;6.47;;
13291;SDS011;6714;53.056;8.690;2024-03-02T13:08:45;6.40;;;5.43;;
13291;SDS011;6714;53.056;8.690;2024-03-02T13:11:28;6.87;;;5.77;;
13291;SDS011;6714;53.056;8.690;2024-03-02T13:14:10;7.07;;;6.37;;
13291;SDS011;6714;53.056;8.690;2024-03-02T13:16:54;7.50;;;6.80;;
13291;SDS011;6714;53.056;8.690;2024-03-02T13:19:37;7.10;;;6.40;;
13291;SDS011;6714;53.056;8.690;2024-03-02T13:22:19;7.57;;;6.23;;
13291;SDS011;6714;53.056;8.690;2024-03-02T13:25:02;6.77;;;6.07;;
13291;SDS011;6714;53.056;8.690;2024-03-02T13:27:45;6.87;;;6.20;;
13291;SDS011;6714;53.056;8.690;2024-03-02T13:30:27;8.00;;;5.47;;
13291;SDS011;6714;53.056;8.690;2024-03-02T13:33:11;7.00;;;5.90;;
13291;SDS011;6714;53.056;8.690;2024-03-02T13:35:53;6.40;;;5.80;;
13291;SDS011;6714;53.056;8.690;2024-03-02T13:38:35;6.23;;;5.63;;
13291;SDS011;6714;53.056;8.690;2024-03-02T13:41:18;7.63;;;6.50;;
13291;SDS011;6714;53.056;8.690;2024-03-02T13:44:00;7.00;;;6.30;;
13291;SDS011;6714;53.056;8.690;2024-03-02T13:46:43;7.37;;;5.90;;
13291;SDS011;6714;53.056;8.690;2024-03-02T13:49:27;7.87;;;6.27;;
13291;SDS011;6714;53.056;8.690;2024-03-02T13:52:13;7.57;;;6.47;;
13291;SDS011;6714;53.056;8.690;2024-03-02T13:54:56;7.23;;;6.53;;
13291;SDS011;6714;53.056;8.690;2024-03-02T13:57:39;6.93;;;6.20;;
13291;SDS011;6714;53.056;8.690;2024-03-02T14:00:21;8.13;;;7.10;;
13291;SDS011;6714;53.056;8.690;2024-03-02T14:03:03;6.87;;;6.20;;
13291;SDS011;6714;53.056;8.690;2024-03-02T14:05:47;7.67;;;6.10;;
13291;SDS011;6714;53.056;8.690;2024-03-02T14:08:30;6.67;;;5.83;;
13291;SDS011;6714;53.056;8.690;2024-03-02T14:11:14;6.23;;;5.63;;
13291;SDS011;6714;53.056;8.690;2024-03-02T14:13:57;6.60;;;5.80;;
13291;SDS011;6714;53.056;8.690;2024-03-02T14:16:39;5.97;;;5.47;;
13291;SDS011;6714;53.056;8.690;2024-03-02T14:19:21;5.97;;;5.47;;
13291;SDS011;6714;53.056;8.690;2024-03-02T14:22:05;5.53;;;5.03;;
13291;SDS011;6714;53.056;8.690;2024-03-02T14:24:47;6.00;;;5.40;;
13291;SDS011;6714;53.056;8.690;2024-03-02T14:27:30;6.00;;;5.37;;
13291;SDS011;6714;53.056;8.690;2024-03-02T14:30:12;5.67;;;4.90;;
13291;SDS011;6714;53.056;8.690;2024-03-02T14:32:54;5.33;;;4.83;;
13291;SDS011;6714;53.056;8.690;2024-03-02T14:35:37;6.93;;;5.53;;
13291;SDS011;6714;53.056;8.690;2024-03-02T14:38:21;6.30;;;5.70;;
13291;SDS011;6714;53.056;8.690;2024-03-02T14:41:03;6.77;;;5.33;;
13291;SDS011;6714;53.056;8.690;2024-03-02T14:43:45;6.97;;;5.07;;
13291;SDS011;6714;53.056;8.690;2024-03-02T14:46:29;5.17;;;4.67;;
13291;SDS011;6714;53.056;8.690;2024-03-02T14:49:11;5.93;;;4.67;;
13291;SDS011;6714;53.056;8.690;2024-03-02T14:51:55;5.70;;;5.10;;
13291;SDS011;6714;53.056;8.690;2024-03-02T14:54:40;6.40;;;5.13;;
13291;SDS011;6714;53.056;8.690;2024-03-02T14:57:22;6.03;;;5.43;;
13291;SDS011;6714;53.056;8.690;2024-03-02T15:00:05;4.93;;;4.37;;
13291;SDS011;6714;53.056;8.690;2024-03-02T15:02:48;5.43;;;4.87;;
13291;SDS011;6714;53.056;8.690;2024-03-02T15:05:30;6.90;;;5.80;;
13291;SDS011;6714;53.056;8.690;2024-03-02T15:08:13;5.57;;;5.07;;
13291;SDS011;6714;53.056;8.690;2024-03-02T15:10:57;6.57;;;5.53;;
13291;SDS011;6714;53.056;8.690;2024-03-02T15:13:40;5.50;;;5.00;;
13291;SDS011;6714;53.056;8.690;2024-03-02T15:16:23;7.73;;;5.27;;
13291;SDS011;6714;53.056;8.690;2024-03-02T15:19:05;5.73;;;5.10;;
13291;SDS011;6714;53.056;8.690;2024-03-02T15:21:48;5.13;;;4.63;;
13291;SDS011;6714;53.056;8.690;2024-03-02T15:24:30;5.37;;;4.57;;
13291;SDS011;6714;53.056;8.690;2024-03-02T15:27:14;5.00;;;4.50;;
13291;SDS011;6714;53.056;8.690;2024-03-02T15:29:56;5.80;;;5.20;;
13291;SDS011;6714;53.056;8.690;2024-03-02T15:32:38;4.97;;;4.47;;
13291;SDS011;6714;53.056;8.690;2024-03-02T15:35:20;5.27;;;4.60;;
13291;SDS011;6714;53.056;8.690;2024-03-02T15:38:03;5.00;;;4.50;;
13291;SDS011;6714;53.056;8.690;2024-03-02T15:40:45;4.40;;;4.00;;
13291;SDS011;6714;53.056;8.690;2024-03-02T15:43:29;4.40;;;4.00;;
13291;SDS011;6714;53.056;8.690;2024-03-02T15:46:12;4.40;;;3.93;;
13291;SDS011;6714;53.056;8.690;2024-03-02T15:48:54;4.77;;;3.93;;
13291;SDS011;6714;53.056;8.690;2024-03-02T15:51:37;4.33;;;3.87;;
13291;SDS011;6714;53.056;8.690;2024-03-02T15:54:23;4.23;;;3.90;;
13291;SDS011;6714;53.056;8.690;2024-03-02T15:57:06;4.70;;;3.60;;
13291;SDS011;6714;53.056;8.690;2024-03-02T15:59:49;4.10;;;3.70;;
13291;SDS011;6714;53.056;8.690;2024-03-02T16:02:32;3.97;;;3.57;;
13291;SDS011;6714;53.056;8.690;2024-03-02T16:05:14;6.03;;;5.43;;
13291;SDS011;6714;53.056;8.690;2024-03-02T16:07:58;6.17;;;5.57;;
13291;SDS011;6714;53.056;8.690;2024-03-02T16:10:40;4.87;;;4.47;;
13291;SDS011;6714;53.056;8.690;2024-03-02T16:13:23;3.40;;;3.10;;
13291;SDS011;6714;53.056;8.690;2024-03-02T16:16:06;3.50;;;3.20;;
13291;SDS011;6714;53.056;8.690;2024-03-02T16:18:49;3.80;;;3.50;;